sensor_id;sensor_type;location;lat;lon;timestamp;P1;durP1;ratioP1;P2;durP2;ratioP2
45296;SDS011;31040;51.622;10.420;2023-03-30T00:01:05;4.70;;;4.20;;
45296;SDS011;31040;51.622;10.420;2023-03-30T00:06:05;5.07;;;4.30;;
45296;SDS011;31040;51.622;10.420;2023-03-30T00:08:34;8.25;;;4.53;;
45296;SDS011;31040;51.622;10.420;2023-03-30T00:11:03;6.13;;;3.90;;
45296;SDS011;31040;51.622;10.420;2023-03-30T00:13:32;6.03;;;4.55;;
45296;SDS011;31040;51.622;10.420;2023-03-30T00:16:00;6.30;;;4.13;;
45296;SDS011;31040;51.622;10.420;2023-03-30T00:18:27;5.90;;;4.18;;
45296;SDS011;31040;51.622;10.420;2023-03-30T00:20:55;6.43;;;4.43;;
45296;SDS011;31040;51.622;10.420;2023-03-30T00:23:24;6.32;;;4.68;;
45296;SDS011;31040;51.622;10.420;2023-03-30T00:25:51;5.50;;;4.43;;
45296;SDS011;31040;51.622;10.420;2023-03-30T00:28:19;6.20;;;3.85;;
45296;SDS011;31040;51.622;10.420;2023-03-30T00:30:47;4.60;;;4.20;;
45296;SDS011;31040;51.622;10.420;2023-03-30T00:33:15;5.55;;;3.92;;
45296;SDS011;31040;51.622;10.420;2023-03-30T00:35:42;7.47;;;4.85;;
45296;SDS011;31040;51.622;10.420;2023-03-30T00:38:09;7.30;;;4.50;;
45296;SDS011;31040;51.622;10.420;2023-03-30T00:40:37;5.40;;;4.40;;
45296;SDS011;31040;51.622;10.420;2023-03-30T00:43:06;7.38;;;4.68;;
45296;SDS011;31040;51.622;10.420;2023-03-30T00:45:34;6.53;;;4.40;;
45296;SDS011;31040;51.622;10.420;2023-03-30T00:50:31;8.52;;;5.68;;
45296;SDS011;31040;51.622;10.420;2023-03-30T00:53:02;6.45;;;4.85;;
45296;SDS011;31040;51.622;10.420;2023-03-30T00:55:32;4.97;;;4.15;;
45296;SDS011;31040;51.622;10.420;2023-03-30T00:58:02;7.28;;;4.43;;
45296;SDS011;31040;51.622;10.420;2023-03-30T01:00:30;6.50;;;4.80;;
45296;SDS011;31040;51.622;10.420;2023-03-30T01:03:00;5.55;;;4.75;;
45296;SDS011;31040;51.622;10.420;2023-03-30T01:05:29;6.80;;;4.85;;
45296;SDS011;31040;51.622;10.420;2023-03-30T01:07:57;7.13;;;4.10;;
45296;SDS011;31040;51.622;10.420;2023-03-30T01:10:24;4.80;;;4.30;;
45296;SDS011;31040;51.622;10.420;2023-03-30T01:12:52;6.13;;;4.68;;
45296;SDS011;31040;51.622;10.420;2023-03-30T01:15:19;5.30;;;4.55;;
45296;SDS011;31040;51.622;10.420;2023-03-30T01:28:44;4.85;;;4.35;;
45296;SDS011;31040;51.622;10.420;2023-03-30T01:34:05;9.82;;;4.93;;
45296;SDS011;31040;51.622;10.420;2023-03-30T01:46:37;6.00;;;4.15;;
45296;SDS011;31040;51.622;10.420;2023-03-30T01:49:15;4.57;;;4.13;;
45296;SDS011;31040;51.622;10.420;2023-03-30T01:52:32;4.22;;;3.78;;
45296;SDS011;31040;51.622;10.420;2023-03-30T01:54:41;5.15;;;4.65;;
45296;SDS011;31040;51.622;10.420;2023-03-30T01:57:32;5.68;;;3.85;;
45296;SDS011;31040;51.622;10.420;2023-03-30T01:59:58;6.50;;;3.97;;
45296;SDS011;31040;51.622;10.420;2023-03-30T02:02:27;6.07;;;3.67;;
45296;SDS011;31040;51.622;10.420;2023-03-30T02:04:56;5.47;;;4.00;;
45296;SDS011;31040;51.622;10.420;2023-03-30T02:07:27;4.55;;;3.97;;
45296;SDS011;31040;51.622;10.420;2023-03-30T02:09:59;6.40;;;4.82;;
45296;SDS011;31040;51.622;10.420;2023-03-30T02:12:28;6.10;;;4.78;;
45296;SDS011;31040;51.622;10.420;2023-03-30T02:14:56;4.53;;;4.05;;
45296;SDS011;31040;51.622;10.420;2023-03-30T02:17:25;10.68;;;7.78;;
45296;SDS011;31040;51.622;10.420;2023-03-30T02:19:55;9.02;;;4.72;;
45296;SDS011;31040;51.622;10.420;2023-03-30T02:22:24;7.35;;;4.40;;
45296;SDS011;31040;51.622;10.420;2023-03-30T02:24:53;5.43;;;4.47;;
45296;SDS011;31040;51.622;10.420;2023-03-30T02:27:21;10.13;;;5.07;;
45296;SDS011;31040;51.622;10.420;2023-03-30T02:29:49;7.65;;;4.80;;
45296;SDS011;31040;51.622;10.420;2023-03-30T02:32:27;7.55;;;4.60;;
45296;SDS011;31040;51.622;10.420;2023-03-30T02:37:41;7.00;;;4.97;;
45296;SDS011;31040;51.622;10.420;2023-03-30T02:56:22;8.43;;;5.00;;
45296;SDS011;31040;51.622;10.420;2023-03-30T02:58:55;7.70;;;5.03;;
45296;SDS011;31040;51.622;10.420;2023-03-30T03:04:19;7.07;;;5.18;;
45296;SDS011;31040;51.622;10.420;2023-03-30T03:06:48;7.10;;;4.35;;
45296;SDS011;31040;51.622;10.420;2023-03-30T03:09:18;5.95;;;4.38;;
45296;SDS011;31040;51.622;10.420;2023-03-30T03:11:46;6.13;;;4.97;;
45296;SDS011;31040;51.622;10.420;2023-03-30T03:14:13;7.32;;;4.57;;
45296;SDS011;31040;51.622;10.420;2023-03-30T03:16:40;8.40;;;4.90;;
45296;SDS011;31040;51.622;10.420;2023-03-30T03:19:08;6.18;;;4.97;;
45296;SDS011;31040;51.622;10.420;2023-03-30T03:21:36;9.45;;;5.00;;
45296;SDS011;31040;51.622;10.420;2023-03-30T03:24:03;6.45;;;5.00;;
45296;SDS011;31040;51.622;10.420;2023-03-30T03:26:31;8.88;;;4.45;;
45296;SDS011;31040;51.622;10.420;2023-03-30T03:28:59;6.28;;;4.72;;
45296;SDS011;31040;51.622;10.420;2023-03-30T03:31:26;9.18;;;5.10;;
45296;SDS011;31040;51.622;10.420;2023-03-30T03:33:54;9.32;;;5.25;;
45296;SDS011;31040;51.622;10.420;2023-03-30T03:36:21;8.32;;;5.18;;
45296;SDS011;31040;51.622;10.420;2023-03-30T03:38:49;8.23;;;5.43;;
45296;SDS011;31040;51.622;10.420;2023-03-30T03:41:17;8.23;;;4.90;;
45296;SDS011;31040;51.622;10.420;2023-03-30T03:43:45;8.65;;;5.72;;
45296;SDS011;31040;51.622;10.420;2023-03-30T03:46:12;7.88;;;5.10;;
45296;SDS011;31040;51.622;10.420;2023-03-30T03:48:40;12.27;;;6.25;;
45296;SDS011;31040;51.622;10.420;2023-03-30T03:51:07;8.82;;;6.35;;
45296;SDS011;31040;51.622;10.420;2023-03-30T03:53:35;9.70;;;5.00;;
45296;SDS011;31040;51.622;10.420;2023-03-30T03:56:02;8.75;;;5.13;;
45296;SDS011;31040;51.622;10.420;2023-03-30T03:58:30;7.18;;;4.60;;
45296;SDS011;31040;51.622;10.420;2023-03-30T04:00:58;7.13;;;4.88;;
45296;SDS011;31040;51.622;10.420;2023-03-30T04:03:26;10.15;;;5.32;;
45296;SDS011;31040;51.622;10.420;2023-03-30T04:05:56;10.18;;;4.82;;
45296;SDS011;31040;51.622;10.420;2023-03-30T04:08:24;10.38;;;5.55;;
45296;SDS011;31040;51.622;10.420;2023-03-30T04:10:51;11.02;;;5.88;;
45296;SDS011;31040;51.622;10.420;2023-03-30T04:13:19;11.70;;;6.35;;
45296;SDS011;31040;51.622;10.420;2023-03-30T04:15:46;11.63;;;5.97;;
45296;SDS011;31040;51.622;10.420;2023-03-30T04:18:14;11.93;;;6.63;;
45296;SDS011;31040;51.622;10.420;2023-03-30T04:20:41;10.20;;;5.85;;
45296;SDS011;31040;51.622;10.420;2023-03-30T04:23:08;10.15;;;6.50;;
45296;SDS011;31040;51.622;10.420;2023-03-30T04:25:47;11.60;;;5.93;;
45296;SDS011;31040;51.622;10.420;2023-03-30T04:28:17;7.18;;;5.47;;
45296;SDS011;31040;51.622;10.420;2023-03-30T04:30:47;8.10;;;5.80;;
45296;SDS011;31040;51.622;10.420;2023-03-30T04:33:16;8.95;;;5.90;;
45296;SDS011;31040;51.622;10.420;2023-03-30T04:35:44;7.57;;;5.68;;
45296;SDS011;31040;51.622;10.420;2023-03-30T04:38:12;12.38;;;6.25;;
45296;SDS011;31040;51.622;10.420;2023-03-30T04:40:48;8.98;;;6.38;;
45296;SDS011;31040;51.622;10.420;2023-03-30T04:43:16;9.75;;;6.03;;
45296;SDS011;31040;51.622;10.420;2023-03-30T04:45:47;6.85;;;5.57;;
45296;SDS011;31040;51.622;10.420;2023-03-30T04:48:16;9.80;;;5.63;;
45296;SDS011;31040;51.622;10.420;2023-03-30T04:50:45;8.20;;;5.43;;
45296;SDS011;31040;51.622;10.420;2023-03-30T04:53:12;11.95;;;6.13;;
45296;SDS011;31040;51.622;10.420;2023-03-30T04:55:40;7.00;;;6.10;;
45296;SDS011;31040;51.622;10.420;2023-03-30T04:58:09;9.20;;;5.50;;
45296;SDS011;31040;51.622;10.420;2023-03-30T05:00:37;6.60;;;5.85;;
45296;SDS011;31040;51.622;10.420;2023-03-30T05:03:05;6.93;;;5.43;;
45296;SDS011;31040;51.622;10.420;2023-03-30T05:05:32;7.53;;;5.75;;
45296;SDS011;31040;51.622;10.420;2023-03-30T05:08:00;8.32;;;5.97;;
45296;SDS011;31040;51.622;10.420;2023-03-30T05:10:27;12.23;;;5.72;;
45296;SDS011;31040;51.622;10.420;2023-03-30T05:12:55;9.05;;;5.20;;
45296;SDS011;31040;51.622;10.420;2023-03-30T05:15:22;12.55;;;5.68;;
45296;SDS011;31040;51.622;10.420;2023-03-30T05:17:50;9.52;;;5.32;;
45296;SDS011;31040;51.622;10.420;2023-03-30T05:20:17;9.38;;;6.10;;
45296;SDS011;31040;51.622;10.420;2023-03-30T05:22:45;13.10;;;5.70;;
45296;SDS011;31040;51.622;10.420;2023-03-30T05:25:13;11.55;;;6.90;;
45296;SDS011;31040;51.622;10.420;2023-03-30T05:27:40;11.73;;;7.47;;
45296;SDS011;31040;51.622;10.420;2023-03-30T05:30:08;8.80;;;5.88;;
45296;SDS011;31040;51.622;10.420;2023-03-30T05:32:36;8.70;;;6.35;;
45296;SDS011;31040;51.622;10.420;2023-03-30T05:35:03;7.85;;;5.65;;
45296;SDS011;31040;51.622;10.420;2023-03-30T05:37:31;12.18;;;6.93;;
45296;SDS011;31040;51.622;10.420;2023-03-30T05:39:58;9.57;;;5.80;;
45296;SDS011;31040;51.622;10.420;2023-03-30T05:42:26;9.55;;;5.55;;
45296;SDS011;31040;51.622;10.420;2023-03-30T05:44:53;8.05;;;5.32;;
45296;SDS011;31040;51.622;10.420;2023-03-30T05:47:21;12.68;;;6.50;;
45296;SDS011;31040;51.622;10.420;2023-03-30T05:49:50;12.05;;;6.57;;
45296;SDS011;31040;51.622;10.420;2023-03-30T05:52:17;9.95;;;5.95;;
45296;SDS011;31040;51.622;10.420;2023-03-30T05:54:45;9.40;;;5.78;;
45296;SDS011;31040;51.622;10.420;2023-03-30T05:57:12;11.43;;;6.47;;
45296;SDS011;31040;51.622;10.420;2023-03-30T05:59:39;9.68;;;6.40;;
45296;SDS011;31040;51.622;10.420;2023-03-30T06:02:08;9.50;;;6.60;;
45296;SDS011;31040;51.622;10.420;2023-03-30T06:04:36;7.93;;;6.47;;
45296;SDS011;31040;51.622;10.420;2023-03-30T06:07:03;8.80;;;5.95;;
45296;SDS011;31040;51.622;10.420;2023-03-30T06:09:32;8.40;;;5.25;;
45296;SDS011;31040;51.622;10.420;2023-03-30T06:11:59;6.10;;;4.57;;
45296;SDS011;31040;51.622;10.420;2023-03-30T06:14:27;7.25;;;4.97;;
45296;SDS011;31040;51.622;10.420;2023-03-30T06:16:55;7.13;;;4.65;;
45296;SDS011;31040;51.622;10.420;2023-03-30T06:19:22;6.13;;;4.57;;
45296;SDS011;31040;51.622;10.420;2023-03-30T06:21:50;9.23;;;5.25;;
45296;SDS011;31040;51.622;10.420;2023-03-30T06:24:17;6.53;;;4.45;;
45296;SDS011;31040;51.622;10.420;2023-03-30T06:26:46;6.63;;;5.35;;
45296;SDS011;31040;51.622;10.420;2023-03-30T06:29:14;6.32;;;4.85;;
45296;SDS011;31040;51.622;10.420;2023-03-30T06:31:41;7.25;;;4.97;;
45296;SDS011;31040;51.622;10.420;2023-03-30T06:34:09;8.50;;;4.97;;
45296;SDS011;31040;51.622;10.420;2023-03-30T06:36:36;7.50;;;4.50;;
45296;SDS011;31040;51.622;10.420;2023-03-30T06:39:11;6.65;;;4.63;;
45296;SDS011;31040;51.622;10.420;2023-03-30T06:41:38;6.70;;;5.40;;
45296;SDS011;31040;51.622;10.420;2023-03-30T06:44:06;6.75;;;4.55;;
45296;SDS011;31040;51.622;10.420;2023-03-30T06:46:35;9.43;;;4.90;;
45296;SDS011;31040;51.622;10.420;2023-03-30T06:49:03;5.40;;;4.50;;
45296;SDS011;31040;51.622;10.420;2023-03-30T06:51:30;7.05;;;4.10;;
45296;SDS011;31040;51.622;10.420;2023-03-30T06:54:00;10.90;;;5.20;;
45296;SDS011;31040;51.622;10.420;2023-03-30T06:56:28;5.28;;;3.97;;
45296;SDS011;31040;51.622;10.420;2023-03-30T06:58:55;8.10;;;4.93;;
45296;SDS011;31040;51.622;10.420;2023-03-30T07:01:23;7.10;;;5.07;;
45296;SDS011;31040;51.622;10.420;2023-03-30T07:03:51;5.28;;;4.78;;
45296;SDS011;31040;51.622;10.420;2023-03-30T07:06:18;8.15;;;4.65;;
45296;SDS011;31040;51.622;10.420;2023-03-30T07:08:46;6.03;;;3.80;;
45296;SDS011;31040;51.622;10.420;2023-03-30T07:11:14;7.00;;;4.35;;
45296;SDS011;31040;51.622;10.420;2023-03-30T07:13:41;7.65;;;3.90;;
45296;SDS011;31040;51.622;10.420;2023-03-30T07:16:09;3.95;;;3.47;;
45296;SDS011;31040;51.622;10.420;2023-03-30T07:18:36;5.20;;;4.07;;
45296;SDS011;31040;51.622;10.420;2023-03-30T07:21:04;7.35;;;4.00;;
45296;SDS011;31040;51.622;10.420;2023-03-30T07:23:32;4.95;;;3.67;;
45296;SDS011;31040;51.622;10.420;2023-03-30T07:25:59;5.82;;;3.50;;
45296;SDS011;31040;51.622;10.420;2023-03-30T07:28:27;9.35;;;3.35;;
45296;SDS011;31040;51.622;10.420;2023-03-30T07:31:01;5.43;;;3.65;;
45296;SDS011;31040;51.622;10.420;2023-03-30T07:33:32;7.53;;;3.90;;
45296;SDS011;31040;51.622;10.420;2023-03-30T07:35:59;6.50;;;3.70;;
45296;SDS011;31040;51.622;10.420;2023-03-30T07:38:27;6.68;;;4.20;;
45296;SDS011;31040;51.622;10.420;2023-03-30T07:40:54;6.97;;;3.42;;
45296;SDS011;31040;51.622;10.420;2023-03-30T07:43:21;6.32;;;3.40;;
45296;SDS011;31040;51.622;10.420;2023-03-30T07:45:49;7.22;;;2.97;;
45296;SDS011;31040;51.622;10.420;2023-03-30T07:48:16;7.40;;;3.55;;
45296;SDS011;31040;51.622;10.420;2023-03-30T07:50:44;7.13;;;3.13;;
45296;SDS011;31040;51.622;10.420;2023-03-30T07:53:11;5.45;;;3.13;;
45296;SDS011;31040;51.622;10.420;2023-03-30T07:55:39;7.20;;;3.17;;
45296;SDS011;31040;51.622;10.420;2023-03-30T07:58:06;7.15;;;3.25;;
45296;SDS011;31040;51.622;10.420;2023-03-30T08:00:34;6.97;;;2.90;;
45296;SDS011;31040;51.622;10.420;2023-03-30T08:03:01;5.70;;;2.88;;
45296;SDS011;31040;51.622;10.420;2023-03-30T08:05:29;5.18;;;2.83;;
45296;SDS011;31040;51.622;10.420;2023-03-30T08:07:57;8.23;;;2.75;;
45296;SDS011;31040;51.622;10.420;2023-03-30T08:10:24;5.03;;;3.08;;
45296;SDS011;31040;51.622;10.420;2023-03-30T08:12:52;6.78;;;3.15;;
45296;SDS011;31040;51.622;10.420;2023-03-30T08:15:19;5.13;;;3.25;;
45296;SDS011;31040;51.622;10.420;2023-03-30T08:17:47;8.60;;;2.92;;
45296;SDS011;31040;51.622;10.420;2023-03-30T08:20:14;8.77;;;3.92;;
45296;SDS011;31040;51.622;10.420;2023-03-30T08:22:42;8.60;;;3.75;;
45296;SDS011;31040;51.622;10.420;2023-03-30T08:25:09;9.98;;;4.32;;
45296;SDS011;31040;51.622;10.420;2023-03-30T08:27:37;6.78;;;3.33;;
45296;SDS011;31040;51.622;10.420;2023-03-30T08:30:04;7.18;;;3.03;;
45296;SDS011;31040;51.622;10.420;2023-03-30T08:32:32;5.40;;;2.50;;
45296;SDS011;31040;51.622;10.420;2023-03-30T08:35:00;6.40;;;2.75;;
45296;SDS011;31040;51.622;10.420;2023-03-30T08:37:27;8.23;;;4.15;;
45296;SDS011;31040;51.622;10.420;2023-03-30T08:39:55;5.05;;;3.15;;
45296;SDS011;31040;51.622;10.420;2023-03-30T08:44:51;7.72;;;3.50;;
45296;SDS011;31040;51.622;10.420;2023-03-30T08:47:24;7.22;;;2.63;;
45296;SDS011;31040;51.622;10.420;2023-03-30T08:52:28;5.80;;;2.40;;
45296;SDS011;31040;51.622;10.420;2023-03-30T08:54:58;5.20;;;2.70;;
45296;SDS011;31040;51.622;10.420;2023-03-30T09:00:07;6.93;;;3.60;;
45296;SDS011;31040;51.622;10.420;2023-03-30T09:02:39;7.03;;;3.08;;
45296;SDS011;31040;51.622;10.420;2023-03-30T09:10:03;7.13;;;2.75;;
45296;SDS011;31040;51.622;10.420;2023-03-30T09:12:51;6.82;;;3.03;;
45296;SDS011;31040;51.622;10.420;2023-03-30T09:15:28;5.40;;;3.00;;
45296;SDS011;31040;51.622;10.420;2023-03-30T09:20:27;7.63;;;2.85;;
45296;SDS011;31040;51.622;10.420;2023-03-30T09:22:57;6.90;;;3.30;;
45296;SDS011;31040;51.622;10.420;2023-03-30T09:25:27;9.05;;;4.50;;
45296;SDS011;31040;51.622;10.420;2023-03-30T09:33:06;5.47;;;2.67;;
45296;SDS011;31040;51.622;10.420;2023-03-30T09:35:42;9.68;;;4.25;;
45296;SDS011;31040;51.622;10.420;2023-03-30T09:38:13;6.60;;;2.90;;
45296;SDS011;31040;51.622;10.420;2023-03-30T09:40:46;5.45;;;3.50;;
45296;SDS011;31040;51.622;10.420;2023-03-30T09:43:30;5.43;;;2.92;;
45296;SDS011;31040;51.622;10.420;2023-03-30T09:46:04;6.55;;;2.88;;
45296;SDS011;31040;51.622;10.420;2023-03-30T09:51:14;5.97;;;2.92;;
45296;SDS011;31040;51.622;10.420;2023-03-30T09:56:12;5.75;;;2.60;;
45296;SDS011;31040;51.622;10.420;2023-03-30T09:58:42;6.65;;;2.72;;
45296;SDS011;31040;51.622;10.420;2023-03-30T10:01:11;6.88;;;2.67;;
45296;SDS011;31040;51.622;10.420;2023-03-30T10:03:42;4.75;;;2.72;;
45296;SDS011;31040;51.622;10.420;2023-03-30T10:06:17;9.27;;;3.00;;
45296;SDS011;31040;51.622;10.420;2023-03-30T10:08:48;4.38;;;2.05;;
45296;SDS011;31040;51.622;10.420;2023-03-30T10:11:20;4.70;;;2.80;;
45296;SDS011;31040;51.622;10.420;2023-03-30T10:13:48;4.20;;;2.25;;
45296;SDS011;31040;51.622;10.420;2023-03-30T10:16:26;5.18;;;2.75;;
45296;SDS011;31040;51.622;10.420;2023-03-30T10:18:58;7.40;;;2.90;;
45296;SDS011;31040;51.622;10.420;2023-03-30T10:21:28;7.00;;;3.05;;
45296;SDS011;31040;51.622;10.420;2023-03-30T10:24:06;5.82;;;2.33;;
45296;SDS011;31040;51.622;10.420;2023-03-30T10:26:44;6.22;;;2.67;;
45296;SDS011;31040;51.622;10.420;2023-03-30T10:29:12;8.73;;;3.00;;
45296;SDS011;31040;51.622;10.420;2023-03-30T10:31:42;6.13;;;3.08;;
45296;SDS011;31040;51.622;10.420;2023-03-30T10:36:57;3.65;;;2.13;;
45296;SDS011;31040;51.622;10.420;2023-03-30T10:39:27;5.05;;;2.30;;
45296;SDS011;31040;51.622;10.420;2023-03-30T10:41:55;6.82;;;2.80;;
45296;SDS011;31040;51.622;10.420;2023-03-30T10:44:35;6.07;;;2.55;;
45296;SDS011;31040;51.622;10.420;2023-03-30T10:47:22;6.05;;;2.40;;
45296;SDS011;31040;51.622;10.420;2023-03-30T10:55:01;6.20;;;2.60;;
45296;SDS011;31040;51.622;10.420;2023-03-30T10:57:36;6.32;;;2.50;;
45296;SDS011;31040;51.622;10.420;2023-03-30T11:02:42;3.78;;;2.17;;
45296;SDS011;31040;51.622;10.420;2023-03-30T11:07:43;5.15;;;2.80;;
45296;SDS011;31040;51.622;10.420;2023-03-30T11:12:40;3.85;;;2.03;;
45296;SDS011;31040;51.622;10.420;2023-03-30T11:15:11;5.78;;;2.10;;
45296;SDS011;31040;51.622;10.420;2023-03-30T11:17:47;8.90;;;2.60;;
45296;SDS011;31040;51.622;10.420;2023-03-30T11:22:47;8.68;;;2.05;;
45296;SDS011;31040;51.622;10.420;2023-03-30T11:25:26;3.70;;;2.40;;
45296;SDS011;31040;51.622;10.420;2023-03-30T11:28:00;3.80;;;1.90;;
45296;SDS011;31040;51.622;10.420;2023-03-30T11:30:32;4.63;;;2.30;;
45296;SDS011;31040;51.622;10.420;2023-03-30T11:35:47;2.63;;;1.85;;
45296;SDS011;31040;51.622;10.420;2023-03-30T11:43:13;6.60;;;2.42;;
45296;SDS011;31040;51.622;10.420;2023-03-30T11:56:00;4.72;;;1.90;;
45296;SDS011;31040;51.622;10.420;2023-03-30T11:58:42;6.55;;;1.55;;
45296;SDS011;31040;51.622;10.420;2023-03-30T12:11:37;2.85;;;2.22;;
45296;SDS011;31040;51.622;10.420;2023-03-30T12:14:13;6.30;;;2.85;;
45296;SDS011;31040;51.622;10.420;2023-03-30T12:16:49;5.45;;;3.25;;
45296;SDS011;31040;51.622;10.420;2023-03-30T12:19:20;5.50;;;3.72;;
45296;SDS011;31040;51.622;10.420;2023-03-30T12:21:58;4.97;;;3.33;;
45296;SDS011;31040;51.622;10.420;2023-03-30T12:26:54;4.35;;;2.05;;
45296;SDS011;31040;51.622;10.420;2023-03-30T12:32:28;2.40;;;1.40;;
45296;SDS011;31040;51.622;10.420;2023-03-30T12:34:56;6.53;;;2.17;;
45296;SDS011;31040;51.622;10.420;2023-03-30T12:37:30;3.45;;;1.52;;
45296;SDS011;31040;51.622;10.420;2023-03-30T12:40:01;3.72;;;1.90;;
45296;SDS011;31040;51.622;10.420;2023-03-30T12:42:36;3.45;;;1.30;;
45296;SDS011;31040;51.622;10.420;2023-03-30T12:50:30;2.28;;;1.40;;
45296;SDS011;31040;51.622;10.420;2023-03-30T12:55:53;3.60;;;1.65;;
45296;SDS011;31040;51.622;10.420;2023-03-30T13:00:58;2.65;;;1.33;;
45296;SDS011;31040;51.622;10.420;2023-03-30T13:06:03;5.05;;;1.50;;
45296;SDS011;31040;51.622;10.420;2023-03-30T13:08:34;4.05;;;1.50;;
45296;SDS011;31040;51.622;10.420;2023-03-30T13:11:18;2.45;;;1.85;;
45296;SDS011;31040;51.622;10.420;2023-03-30T13:13:54;6.20;;;2.28;;
45296;SDS011;31040;51.622;10.420;2023-03-30T13:21:55;3.42;;;1.73;;
45296;SDS011;31040;51.622;10.420;2023-03-30T13:24:24;2.58;;;1.33;;
45296;SDS011;31040;51.622;10.420;2023-03-30T13:27:00;3.80;;;1.70;;
45296;SDS011;31040;51.622;10.420;2023-03-30T13:29:36;3.78;;;2.38;;
45296;SDS011;31040;51.622;10.420;2023-03-30T13:34:55;5.88;;;2.20;;
45296;SDS011;31040;51.622;10.420;2023-03-30T13:43:07;5.90;;;2.35;;
45296;SDS011;31040;51.622;10.420;2023-03-30T13:45:38;3.92;;;2.50;;
45296;SDS011;31040;51.622;10.420;2023-03-30T13:50:56;3.38;;;2.47;;
45296;SDS011;31040;51.622;10.420;2023-03-30T13:53:26;5.47;;;2.38;;
45296;SDS011;31040;51.622;10.420;2023-03-30T13:55:54;3.35;;;1.65;;
45296;SDS011;31040;51.622;10.420;2023-03-30T13:58:23;4.43;;;1.70;;
45296;SDS011;31040;51.622;10.420;2023-03-30T14:00:55;5.63;;;2.30;;
45296;SDS011;31040;51.622;10.420;2023-03-30T14:05:59;3.58;;;1.48;;
45296;SDS011;31040;51.622;10.420;2023-03-30T14:08:31;5.15;;;1.80;;
45296;SDS011;31040;51.622;10.420;2023-03-30T14:11:03;3.15;;;1.83;;
45296;SDS011;31040;51.622;10.420;2023-03-30T14:13:35;4.38;;;1.70;;
45296;SDS011;31040;51.622;10.420;2023-03-30T14:16:04;2.95;;;1.63;;
45296;SDS011;31040;51.622;10.420;2023-03-30T14:18:32;5.38;;;2.50;;
45296;SDS011;31040;51.622;10.420;2023-03-30T14:21:00;5.32;;;2.15;;
45296;SDS011;31040;51.622;10.420;2023-03-30T14:26:00;6.45;;;2.22;;
45296;SDS011;31040;51.622;10.420;2023-03-30T14:28:29;9.35;;;2.85;;
45296;SDS011;31040;51.622;10.420;2023-03-30T14:31:00;3.72;;;2.20;;
45296;SDS011;31040;51.622;10.420;2023-03-30T14:33:31;3.08;;;1.70;;
45296;SDS011;31040;51.622;10.420;2023-03-30T14:35:58;4.18;;;2.10;;
45296;SDS011;31040;51.622;10.420;2023-03-30T14:38:33;4.03;;;1.90;;
45296;SDS011;31040;51.622;10.420;2023-03-30T14:41:21;7.53;;;2.35;;
45296;SDS011;31040;51.622;10.420;2023-03-30T14:43:51;5.20;;;2.17;;
45296;SDS011;31040;51.622;10.420;2023-03-30T14:46:20;3.00;;;1.80;;
45296;SDS011;31040;51.622;10.420;2023-03-30T14:48:52;4.68;;;2.22;;
45296;SDS011;31040;51.622;10.420;2023-03-30T14:53:47;2.65;;;1.92;;
45296;SDS011;31040;51.622;10.420;2023-03-30T14:56:15;6.68;;;1.98;;
45296;SDS011;31040;51.622;10.420;2023-03-30T14:58:43;4.35;;;2.10;;
45296;SDS011;31040;51.622;10.420;2023-03-30T15:01:13;3.88;;;2.20;;
45296;SDS011;31040;51.622;10.420;2023-03-30T15:03:41;4.63;;;1.98;;
45296;SDS011;31040;51.622;10.420;2023-03-30T15:06:13;6.47;;;1.70;;
45296;SDS011;31040;51.622;10.420;2023-03-30T15:08:43;7.15;;;2.47;;
45296;SDS011;31040;51.622;10.420;2023-03-30T15:11:18;3.55;;;2.20;;
45296;SDS011;31040;51.622;10.420;2023-03-30T15:13:48;4.63;;;2.30;;
45296;SDS011;31040;51.622;10.420;2023-03-30T15:16:21;3.63;;;2.50;;
45296;SDS011;31040;51.622;10.420;2023-03-30T15:18:50;5.47;;;2.15;;
45296;SDS011;31040;51.622;10.420;2023-03-30T15:21:18;7.22;;;1.92;;
45296;SDS011;31040;51.622;10.420;2023-03-30T15:23:46;5.05;;;2.83;;
45296;SDS011;31040;51.622;10.420;2023-03-30T15:26:14;9.23;;;1.80;;
45296;SDS011;31040;51.622;10.420;2023-03-30T15:28:50;6.25;;;1.80;;
45296;SDS011;31040;51.622;10.420;2023-03-30T15:31:18;4.38;;;1.58;;
45296;SDS011;31040;51.622;10.420;2023-03-30T15:33:55;3.20;;;1.40;;
45296;SDS011;31040;51.622;10.420;2023-03-30T15:36:24;5.15;;;2.15;;
45296;SDS011;31040;51.622;10.420;2023-03-30T15:38:53;4.60;;;1.80;;
45296;SDS011;31040;51.622;10.420;2023-03-30T15:41:22;4.32;;;1.50;;
45296;SDS011;31040;51.622;10.420;2023-03-30T15:43:53;3.83;;;1.50;;
45296;SDS011;31040;51.622;10.420;2023-03-30T15:46:21;3.00;;;1.63;;
45296;SDS011;31040;51.622;10.420;2023-03-30T15:48:49;4.03;;;2.13;;
45296;SDS011;31040;51.622;10.420;2023-03-30T15:53:51;3.33;;;1.90;;
45296;SDS011;31040;51.622;10.420;2023-03-30T15:56:37;3.97;;;2.00;;
45296;SDS011;31040;51.622;10.420;2023-03-30T15:59:09;3.72;;;1.67;;
45296;SDS011;31040;51.622;10.420;2023-03-30T16:02:39;3.72;;;1.52;;
45296;SDS011;31040;51.622;10.420;2023-03-30T16:04:34;3.70;;;1.70;;
45296;SDS011;31040;51.622;10.420;2023-03-30T16:07:07;5.57;;;2.20;;
45296;SDS011;31040;51.622;10.420;2023-03-30T16:09:34;5.78;;;2.30;;
45296;SDS011;31040;51.622;10.420;2023-03-30T16:12:01;3.05;;;1.50;;
45296;SDS011;31040;51.622;10.420;2023-03-30T16:14:29;2.92;;;1.60;;
45296;SDS011;31040;51.622;10.420;2023-03-30T16:16:57;5.53;;;1.45;;
45296;SDS011;31040;51.622;10.420;2023-03-30T16:19:25;2.75;;;1.17;;
45296;SDS011;31040;51.622;10.420;2023-03-30T16:21:52;3.15;;;1.52;;
45296;SDS011;31040;51.622;10.420;2023-03-30T16:24:20;1.95;;;1.02;;
45296;SDS011;31040;51.622;10.420;2023-03-30T16:26:47;1.27;;;0.95;;
45296;SDS011;31040;51.622;10.420;2023-03-30T16:29:18;3.78;;;1.48;;
45296;SDS011;31040;51.622;10.420;2023-03-30T16:31:47;1.75;;;0.90;;
45296;SDS011;31040;51.622;10.420;2023-03-30T16:34:15;2.83;;;1.20;;
45296;SDS011;31040;51.622;10.420;2023-03-30T16:36:42;1.30;;;0.98;;
45296;SDS011;31040;51.622;10.420;2023-03-30T16:39:17;1.88;;;1.13;;
45296;SDS011;31040;51.622;10.420;2023-03-30T16:41:46;2.35;;;1.00;;
45296;SDS011;31040;51.622;10.420;2023-03-30T16:44:14;2.58;;;1.10;;
45296;SDS011;31040;51.622;10.420;2023-03-30T16:46:41;1.60;;;1.08;;
45296;SDS011;31040;51.622;10.420;2023-03-30T16:49:13;3.47;;;1.52;;
45296;SDS011;31040;51.622;10.420;2023-03-30T16:51:41;0.70;;;0.70;;
45296;SDS011;31040;51.622;10.420;2023-03-30T16:54:09;4.70;;;1.20;;
45296;SDS011;31040;51.622;10.420;2023-03-30T16:56:55;2.45;;;0.95;;
45296;SDS011;31040;51.622;10.420;2023-03-30T16:59:23;3.85;;;1.75;;
45296;SDS011;31040;51.622;10.420;2023-03-30T17:01:51;3.67;;;1.10;;
45296;SDS011;31040;51.622;10.420;2023-03-30T17:04:19;4.68;;;1.75;;
45296;SDS011;31040;51.622;10.420;2023-03-30T17:06:46;2.72;;;0.82;;
45296;SDS011;31040;51.622;10.420;2023-03-30T17:09:15;2.75;;;1.25;;
45296;SDS011;31040;51.622;10.420;2023-03-30T17:11:43;2.55;;;1.02;;
45296;SDS011;31040;51.622;10.420;2023-03-30T17:14:11;1.75;;;1.60;;
45296;SDS011;31040;51.622;10.420;2023-03-30T17:16:39;4.85;;;2.15;;
45296;SDS011;31040;51.622;10.420;2023-03-30T17:19:10;4.45;;;1.23;;
45296;SDS011;31040;51.622;10.420;2023-03-30T17:21:38;2.35;;;0.95;;
45296;SDS011;31040;51.622;10.420;2023-03-30T17:24:08;4.55;;;1.15;;
45296;SDS011;31040;51.622;10.420;2023-03-30T17:26:36;5.20;;;1.17;;
45296;SDS011;31040;51.622;10.420;2023-03-30T17:29:04;3.13;;;1.27;;
45296;SDS011;31040;51.622;10.420;2023-03-30T17:31:31;2.85;;;1.40;;
45296;SDS011;31040;51.622;10.420;2023-03-30T17:33:59;5.63;;;1.90;;
45296;SDS011;31040;51.622;10.420;2023-03-30T17:36:26;5.30;;;2.17;;